Terminal Aerodrome Forecast
Issued by NWS Corpus Christi, TX

Current Version | Previous Version | Text Only | Print | Product List | Glossary Off
Versions: 1 2 3 4 5 6 7 8 9 10 11 12 13 14

000
FTUS44 KCRP 231100
TAFVCT
TAF
KVCT 231128Z 2312/2412 35005KT P6SM BKN100
      TEMPO 2312/2314 5SM BR SCT025 OVC100
     FM231400 04007KT P6SM SCT030 BKN100
     FM231800 07012KT P6SM SCT040 BKN250
     FM240300 36003KT P6SM SCT150=

USA.gov is the U.S. government's official web portal to all federal, state and local government web resources and services.